createdAt,value
2018-02-10T00:00:02.517Z,84.45
2018-02-10T00:01:08.287Z,92.35
2018-02-10T00:02:14.440Z,78.43
2018-02-10T00:03:20.649Z,81.28
2018-02-10T00:04:26.840Z,88.00
2018-02-10T00:05:32.702Z,87.12
2018-02-10T00:06:38.865Z,85.55
2018-02-10T00:07:45.045Z,81.25
2018-02-10T00:08:51.237Z,80.97
2018-02-10T00:09:57.401Z,83.45
2018-02-10T00:11:03.533Z,83.57
2018-02-10T00:12:09.663Z,81.85
2018-02-10T00:13:16.745Z,84.75
2018-02-10T00:14:23.208Z,90.60
2018-02-10T00:15:29.416Z,87.55
2018-02-10T00:16:35.632Z,84.82
2018-02-10T00:17:41.803Z,84.70
2018-02-10T00:18:48.012Z,87.15
2018-02-10T00:19:54.200Z,81.85
2018-02-10T00:21:00.383Z,87.43
2018-02-10T00:22:06.289Z,89.65
2018-02-10T00:23:15.125Z,75.62
2018-02-10T00:24:21.953Z,92.62
2018-02-10T00:25:28.101Z,81.15
2018-02-10T00:26:34.260Z,86.97
2018-02-10T00:27:40.477Z,87.78
2018-02-10T00:28:46.623Z,82.97
2018-02-10T00:29:52.856Z,87.57
2018-02-10T00:30:59.014Z,81.18
2018-02-10T00:32:05.196Z,77.90
2018-02-10T00:33:11.377Z,83.10
2018-02-10T00:34:17.548Z,78.60
2018-02-10T00:35:23.732Z,86.25
2018-02-10T00:36:29.856Z,81.87
2018-02-10T00:37:35.996Z,89.68
2018-02-10T00:38:41.913Z,87.30
2018-02-10T00:39:48.098Z,84.90
2018-02-10T00:40:54.876Z,87.40
2018-02-10T00:42:01.072Z,90.68
2018-02-10T00:43:07.256Z,81.05
2018-02-10T00:44:18.670Z,79.30
2018-02-10T00:45:24.841Z,87.85
2018-02-10T00:46:30.989Z,82.40
2018-02-10T00:47:37.197Z,79.25
2018-02-10T00:48:43.409Z,90.57
2018-02-10T00:49:49.606Z,79.07
2018-02-10T00:50:55.793Z,80.38
2018-02-10T00:52:01.981Z,77.93
2018-02-10T00:53:09.229Z,95.32
2018-02-10T00:54:15.417Z,85.38
2018-02-10T00:55:21.653Z,83.75
2018-02-10T00:56:29.819Z,79.12
2018-02-10T00:57:35.980Z,91.65
2018-02-10T00:58:42.256Z,88.03
2018-02-10T00:59:48.491Z,88.03
2018-02-10T01:00:54.654Z,87.35
2018-02-10T01:02:00.853Z,84.50
2018-02-10T01:03:07.051Z,83.95
2018-02-10T01:04:13.230Z,80.62
2018-02-10T01:05:19.353Z,85.82
2018-02-10T01:06:25.287Z,89.32
2018-02-10T01:07:31.449Z,81.63
2018-02-10T01:08:37.656Z,86.72
2018-02-10T01:09:43.885Z,76.53
2018-02-10T01:10:50.024Z,96.37
2018-02-10T01:11:55.912Z,87.03
2018-02-10T01:13:08.974Z,88.70
2018-02-10T01:14:18.588Z,89.82
2018-02-10T01:15:24.765Z,86.43
2018-02-10T01:16:36.421Z,83.82
2018-02-10T01:17:43.362Z,79.28
2018-02-10T01:18:50.308Z,87.37
2018-02-10T01:19:56.475Z,85.50
2018-02-10T01:21:02.667Z,89.05
2018-02-10T01:22:08.817Z,78.82
2018-02-10T01:23:14.955Z,79.62
2018-02-10T01:24:21.128Z,82.20
2018-02-10T01:25:32.337Z,82.70
2018-02-10T01:26:38.594Z,81.07
2018-02-10T01:27:44.770Z,81.57
2018-02-10T01:28:54.849Z,83.93
2018-02-10T01:30:01.213Z,88.82
2018-02-10T01:31:08.375Z,82.65
2018-02-10T01:32:14.580Z,79.82
2018-02-10T01:33:20.813Z,84.62
2018-02-10T01:34:26.977Z,88.47
2018-02-10T01:35:33.115Z,87.97
2018-02-10T01:36:39.244Z,91.18
2018-02-10T01:37:45.403Z,76.55
2018-02-10T01:38:51.621Z,90.55
2018-02-10T01:39:57.795Z,87.12
2018-02-10T01:41:03.970Z,76.80
2018-02-10T01:42:10.162Z,86.12
2018-02-10T01:43:16.333Z,84.20
2018-02-10T01:44:22.521Z,79.35
2018-02-10T01:45:28.706Z,87.30
2018-02-10T01:46:34.813Z,90.28
2018-02-10T01:47:40.961Z,83.95
2018-02-10T01:48:47.101Z,85.10
2018-02-10T02:02:04.177Z,81.68
2018-02-10T02:03:10.304Z,85.87
2018-02-10T02:04:16.472Z,86.75
2018-02-10T02:05:27.721Z,77.53
2018-02-10T02:06:33.894Z,76.37
2018-02-10T02:07:40.023Z,85.45
2018-02-10T02:08:46.189Z,82.05
2018-02-10T02:09:52.383Z,80.62
2018-02-10T02:10:58.576Z,80.72
2018-02-10T02:12:04.693Z,88.80
2018-02-10T02:13:10.839Z,88.35
2018-02-10T02:14:17.457Z,86.05
2018-02-10T02:15:23.818Z,82.05
2018-02-10T02:16:36.186Z,76.57
2018-02-10T02:17:42.409Z,80.15
2018-02-10T02:18:49.190Z,80.45
2018-02-10T02:19:55.935Z,82.37
2018-02-10T02:21:02.194Z,88.90
2018-02-10T02:22:08.602Z,93.03
2018-02-10T02:23:14.765Z,78.60
2018-02-10T02:24:21.104Z,80.70
2018-02-10T02:25:27.360Z,84.53
2018-02-10T02:26:33.791Z,85.40
2018-02-10T02:27:39.964Z,80.15
2018-02-10T02:28:46.084Z,82.40
2018-02-10T02:29:52.228Z,77.40
2018-02-10T02:30:58.464Z,79.22
2018-02-10T02:32:04.683Z,76.85
2018-02-10T02:33:10.943Z,85.18
2018-02-10T02:34:17.772Z,79.82
2018-02-10T02:35:24.428Z,80.15
2018-02-10T02:36:30.647Z,84.00
2018-02-10T02:37:37.176Z,83.18
2018-02-10T02:38:43.555Z,90.53
2018-02-10T02:39:50.086Z,87.37
2018-02-10T02:40:56.327Z,91.47
2018-02-10T02:42:02.657Z,78.85
2018-02-10T02:43:08.838Z,81.03
2018-02-10T02:44:14.966Z,83.85
2018-02-10T02:45:21.764Z,81.78
2018-02-10T02:46:28.388Z,84.65
2018-02-10T02:47:35.031Z,79.95
2018-02-10T02:48:41.636Z,83.28
2018-02-10T02:49:47.432Z,75.28
2018-02-10T02:50:54.095Z,79.03
2018-02-10T02:52:00.322Z,75.57
2018-02-10T02:53:06.827Z,87.68
2018-02-10T02:54:18.536Z,80.70
2018-02-10T02:55:24.688Z,81.40
2018-02-10T02:56:31.182Z,80.87
2018-02-10T02:57:37.389Z,82.15
2018-02-10T02:58:43.613Z,80.78
2018-02-10T02:59:49.786Z,78.90
2018-02-10T03:00:56.099Z,82.37
2018-02-10T03:02:02.365Z,81.15
2018-02-10T03:03:08.626Z,73.32
2018-02-10T03:04:15.094Z,76.43
2018-02-10T03:05:21.281Z,77.85
2018-02-10T03:06:27.436Z,78.53
2018-02-10T03:07:34.021Z,90.03
2018-02-10T03:08:40.636Z,83.90
2018-02-10T03:09:47.162Z,87.97
2018-02-10T03:10:53.881Z,87.95
2018-02-10T03:12:00.342Z,84.60
2018-02-10T03:13:06.478Z,80.03
2018-02-10T03:14:13.065Z,84.87
2018-02-10T03:15:19.234Z,84.22
2018-02-10T03:16:25.430Z,79.93
2018-02-10T03:17:32.100Z,86.25
2018-02-10T03:18:38.560Z,81.85
2018-02-10T03:19:44.796Z,87.10
2018-02-10T03:20:51.881Z,82.55
2018-02-10T03:22:08.421Z,76.90
2018-02-10T03:23:14.610Z,81.85
2018-02-10T03:24:21.065Z,83.03
2018-02-10T03:25:27.243Z,83.30
2018-02-10T03:26:33.774Z,78.28
2018-02-10T03:27:40.036Z,76.40
2018-02-10T03:28:46.335Z,87.20
2018-02-10T03:29:52.516Z,79.62
2018-02-10T03:30:58.760Z,83.15
2018-02-10T03:32:04.930Z,80.55
2018-02-10T03:33:11.362Z,75.20
2018-02-10T03:34:17.541Z,83.35
2018-02-10T03:35:23.687Z,84.18
2018-02-10T03:36:29.929Z,76.55
2018-02-10T03:37:36.207Z,78.35
2018-02-10T03:38:42.348Z,82.55
2018-02-10T03:39:48.625Z,81.10
2018-02-10T03:41:00.106Z,84.45
2018-02-10T03:42:08.136Z,82.40
2018-02-10T03:43:15.087Z,87.03
2018-02-10T03:44:21.440Z,76.47
2018-02-10T03:45:27.958Z,84.82
2018-02-10T03:46:34.095Z,83.22
2018-02-10T03:47:40.771Z,80.85
2018-02-10T03:48:46.800Z,82.32
2018-02-10T03:49:53.300Z,83.00
2018-02-10T03:50:59.643Z,81.63
2018-02-10T03:52:05.826Z,77.12
2018-02-10T03:53:12.489Z,75.72
2018-02-10T03:54:19.121Z,81.90
2018-02-10T03:55:25.311Z,81.82
2018-02-10T03:56:31.763Z,83.30
2018-02-10T03:57:37.999Z,87.72
2018-02-10T03:58:44.203Z,83.20
2018-02-10T03:59:50.387Z,78.47
2018-02-10T04:00:56.536Z,83.40
2018-02-10T04:02:02.435Z,88.00
2018-02-10T04:03:09.392Z,87.72
2018-02-10T04:04:16.420Z,77.20
2018-02-10T04:05:23.232Z,89.95
2018-02-10T04:06:30.258Z,84.03
2018-02-10T04:07:37.215Z,83.95
2018-02-10T04:08:44.208Z,81.60
2018-02-10T04:09:51.237Z,81.72
2018-02-10T04:11:02.517Z,77.60
2018-02-10T04:12:08.691Z,83.70
2018-02-10T04:13:14.820Z,76.45
2018-02-10T04:14:21.055Z,79.93
2018-02-10T04:15:27.703Z,86.05
2018-02-10T04:16:34.726Z,83.45
2018-02-10T04:17:41.328Z,76.28
2018-02-10T04:18:48.297Z,76.43
2018-02-10T04:19:54.737Z,75.65
2018-02-10T04:21:00.887Z,79.00
2018-02-10T04:22:07.086Z,74.55
2018-02-10T04:23:13.276Z,81.30
2018-02-10T04:24:19.556Z,70.45
2018-02-10T04:25:26.361Z,72.95
2018-02-10T04:26:33.232Z,80.60
2018-02-10T04:27:40.057Z,82.45
2018-02-10T04:28:46.246Z,77.43
2018-02-10T04:29:52.436Z,76.50
2018-02-10T04:30:58.659Z,81.30
2018-02-10T04:32:04.871Z,73.00
2018-02-10T04:33:11.374Z,78.12
2018-02-10T04:34:18.088Z,72.50
2018-02-10T04:35:24.241Z,76.03
2018-02-10T04:36:30.509Z,74.18
2018-02-10T04:37:36.812Z,77.07
2018-02-10T04:38:43.943Z,81.60
2018-02-10T04:39:52.260Z,77.35
2018-02-10T04:40:58.668Z,77.87
2018-02-10T04:42:05.860Z,80.62
2018-02-10T04:43:12.025Z,83.95
2018-02-10T04:44:18.176Z,76.82
2018-02-10T04:45:24.328Z,74.32
2018-02-10T04:46:30.515Z,90.07
2018-02-10T04:47:36.702Z,78.95
2018-02-10T04:48:42.902Z,81.12
2018-02-10T04:49:49.105Z,77.32
2018-02-10T04:50:55.277Z,78.15
2018-02-10T04:52:01.465Z,76.20
2018-02-10T04:53:07.822Z,82.30
2018-02-10T04:54:14.004Z,81.53
2018-02-10T04:55:20.151Z,85.38
2018-02-10T04:56:26.307Z,83.22
2018-02-10T04:57:32.471Z,83.75
2018-02-10T04:58:38.694Z,79.55
2018-02-10T04:59:44.820Z,78.62
2018-02-10T05:00:51.017Z,81.18
2018-02-10T05:01:56.865Z,76.37
2018-02-10T05:03:04.066Z,79.28
2018-02-10T05:04:10.328Z,77.97
2018-02-10T05:05:16.467Z,81.40
2018-02-10T05:06:22.662Z,82.18
2018-02-10T05:07:28.913Z,88.57
2018-02-10T05:08:35.090Z,81.35
2018-02-10T05:09:41.246Z,80.53
2018-02-10T05:10:47.375Z,72.50
2018-02-10T05:11:53.529Z,84.60
2018-02-10T05:12:59.732Z,87.72
2018-02-10T05:14:05.872Z,73.15
2018-02-10T05:15:12.067Z,87.07
2018-02-10T05:16:18.229Z,73.62
2018-02-10T05:17:24.392Z,80.65
2018-02-10T05:18:30.623Z,74.03
2018-02-10T05:19:36.858Z,77.20
2018-02-10T05:20:43.003Z,71.62
2018-02-10T05:21:49.196Z,82.35
2018-02-10T05:22:55.672Z,82.95
2018-02-10T05:24:01.856Z,80.72
2018-02-10T05:25:07.993Z,76.68
2018-02-10T05:26:15.352Z,82.15
2018-02-10T05:27:21.502Z,84.20
2018-02-10T05:28:27.750Z,76.93
2018-02-10T05:29:33.899Z,82.70
2018-02-10T05:30:40.050Z,80.95
2018-02-10T05:31:46.213Z,70.20
2018-02-10T05:32:52.428Z,81.55
2018-02-10T05:33:58.621Z,75.82
2018-02-10T05:35:04.812Z,73.93
2018-02-10T05:36:10.987Z,83.15
2018-02-10T05:37:17.199Z,74.37
2018-02-10T05:38:23.534Z,79.00
2018-02-10T05:39:29.663Z,76.22
2018-02-10T05:40:35.865Z,81.45
2018-02-10T05:41:42.012Z,83.30
2018-02-10T05:42:48.270Z,74.57
2018-02-10T05:43:54.385Z,80.05
2018-02-10T05:45:00.545Z,80.55
2018-02-10T05:46:06.753Z,75.57
2018-02-10T05:47:13.337Z,72.65
2018-02-10T05:48:19.541Z,85.72
2018-02-10T05:49:25.830Z,82.50
2018-02-10T05:50:31.985Z,80.20
2018-02-10T05:51:38.233Z,82.88
2018-02-10T05:52:44.537Z,88.75
2018-02-10T05:53:50.727Z,77.03
2018-02-10T05:54:56.859Z,81.40
2018-02-10T05:56:03.087Z,72.55
2018-02-10T05:57:09.264Z,68.68
2018-02-10T05:58:15.821Z,80.60
2018-02-10T05:59:22.010Z,77.65
2018-02-10T06:00:28.204Z,80.68
2018-02-10T06:01:34.374Z,75.93
2018-02-10T06:02:41.637Z,78.22
2018-02-10T06:03:47.827Z,78.45
2018-02-10T06:04:53.979Z,81.18
2018-02-10T06:06:00.172Z,74.03
2018-02-10T06:07:06.357Z,68.72
2018-02-10T06:08:12.623Z,84.18
2018-02-10T06:09:18.798Z,78.22
2018-02-10T06:10:24.962Z,78.45
2018-02-10T06:11:31.392Z,70.85
2018-02-10T06:12:37.505Z,74.18
2018-02-10T06:13:43.682Z,72.22
2018-02-10T06:14:49.900Z,69.47
2018-02-10T06:15:56.070Z,75.50
2018-02-10T06:17:02.299Z,63.22
2018-02-10T06:18:08.476Z,75.68
2018-02-10T06:19:14.634Z,86.32
2018-02-10T06:20:20.836Z,84.03
2018-02-10T06:21:27.059Z,83.22
2018-02-10T06:22:33.044Z,83.72
2018-02-10T06:23:38.900Z,75.50
2018-02-10T06:24:45.105Z,75.37
2018-02-10T06:25:51.224Z,76.43
2018-02-10T06:26:57.362Z,88.18
2018-02-10T06:28:03.533Z,83.30
2018-02-10T06:29:09.720Z,74.43
2018-02-10T06:30:16.140Z,79.03
2018-02-10T06:31:22.341Z,71.87
2018-02-10T06:32:28.539Z,76.05
2018-02-10T06:33:34.722Z,73.22
2018-02-10T06:34:40.893Z,84.75
2018-02-10T06:35:47.040Z,76.05
2018-02-10T06:36:53.208Z,77.95
2018-02-10T06:37:59.399Z,73.60
2018-02-10T06:39:04.881Z,79.65
2018-02-10T06:40:11.085Z,80.97
2018-02-10T06:41:17.268Z,82.60
2018-02-10T06:42:23.476Z,79.12
2018-02-10T06:43:34.909Z,73.35
2018-02-10T06:44:41.084Z,83.43
2018-02-10T06:45:47.208Z,73.10
2018-02-10T06:46:54.619Z,74.62
2018-02-10T06:48:00.831Z,76.93
2018-02-10T06:49:07.136Z,84.28
2018-02-10T06:50:13.350Z,76.47
2018-02-10T06:51:19.585Z,72.50
2018-02-10T06:52:26.008Z,82.85
2018-02-10T06:53:32.197Z,75.53
2018-02-10T06:54:38.384Z,84.95
2018-02-10T06:55:44.577Z,78.50
2018-02-10T06:56:50.759Z,73.53
2018-02-10T06:57:57.975Z,81.53
2018-02-10T06:59:04.519Z,85.90
2018-02-10T07:00:10.524Z,68.57
2018-02-10T07:01:16.694Z,81.53
2018-02-10T07:02:23.021Z,78.87
2018-02-10T07:03:29.299Z,80.22
2018-02-10T07:04:35.498Z,79.10
2018-02-10T07:05:41.715Z,76.60
2018-02-10T07:06:47.925Z,76.50
2018-02-10T07:07:54.076Z,68.62
2018-02-10T07:09:00.328Z,73.82
2018-02-10T07:10:06.508Z,79.97
2018-02-10T07:11:12.733Z,85.75
2018-02-10T07:12:18.563Z,82.65
2018-02-10T07:13:24.760Z,84.50
2018-02-10T07:14:30.941Z,72.95
2018-02-10T07:15:37.151Z,79.37
2018-02-10T07:16:43.286Z,75.60
2018-02-10T07:17:49.497Z,79.72
2018-02-10T07:18:55.709Z,81.63
2018-02-10T07:20:01.983Z,71.78
2018-02-10T07:21:07.913Z,72.62
2018-02-10T07:22:14.138Z,72.05
2018-02-10T07:23:20.324Z,80.25
2018-02-10T07:24:26.536Z,72.57
2018-02-10T07:25:32.901Z,77.60
2018-02-10T07:26:39.019Z,75.65
2018-02-10T07:27:45.225Z,68.95
2018-02-10T07:28:51.423Z,70.93
2018-02-10T07:29:57.654Z,73.00
2018-02-10T07:31:03.815Z,77.53
2018-02-10T07:32:10.281Z,70.80
2018-02-10T07:33:16.439Z,74.55
2018-02-10T07:34:22.648Z,73.68
2018-02-10T07:35:28.829Z,73.45
2018-02-10T07:36:35.026Z,67.03
2018-02-10T07:37:41.163Z,72.97
2018-02-10T07:38:47.356Z,67.75
2018-02-10T07:39:53.513Z,73.30
2018-02-10T07:40:59.665Z,77.22
2018-02-10T07:42:05.919Z,70.37
2018-02-10T07:43:12.150Z,71.00
2018-02-10T07:44:18.268Z,74.07
2018-02-10T07:45:24.472Z,67.87
2018-02-10T07:46:30.695Z,62.00
2018-02-10T07:47:36.925Z,75.22
2018-02-10T07:48:43.207Z,67.60
2018-02-10T07:49:49.396Z,73.40
2018-02-10T07:50:55.592Z,71.45
2018-02-10T07:52:01.765Z,61.15
2018-02-10T07:53:07.971Z,65.28
2018-02-10T07:54:14.160Z,67.75
2018-02-10T07:55:20.385Z,64.20
2018-02-10T07:56:26.578Z,71.25
2018-02-10T07:57:32.792Z,58.35
2018-02-10T07:58:39.027Z,67.68
2018-02-10T07:59:45.183Z,68.32
2018-02-10T08:00:51.367Z,66.00
2018-02-10T08:01:57.688Z,63.22
2018-02-10T08:03:03.829Z,63.20
2018-02-10T08:04:10.059Z,71.47
2018-02-10T08:05:16.212Z,67.00
2018-02-10T08:06:22.435Z,72.07
2018-02-10T08:07:28.627Z,68.57
2018-02-10T08:08:34.856Z,66.03
2018-02-10T08:09:41.107Z,63.05
2018-02-10T08:10:47.284Z,67.40
2018-02-10T08:11:53.817Z,72.07
2018-02-10T08:12:59.972Z,58.15
2018-02-10T08:14:06.154Z,69.72
2018-02-10T08:15:12.369Z,62.10
2018-02-10T08:16:18.596Z,66.50
2018-02-10T08:17:24.716Z,59.63
2018-02-10T08:18:30.901Z,65.35
2018-02-10T08:19:37.074Z,64.72
2018-02-10T08:20:43.613Z,66.68
2018-02-10T08:21:49.761Z,69.30
2018-02-10T08:22:55.962Z,63.92
2018-02-10T08:24:02.174Z,59.35
2018-02-10T08:25:08.343Z,66.70
2018-02-10T08:26:19.557Z,66.72
2018-02-10T08:27:25.688Z,61.55
2018-02-10T08:28:31.890Z,59.20
2018-02-10T08:29:38.072Z,60.15
2018-02-10T08:30:44.286Z,62.97
2018-02-10T08:31:50.500Z,59.50
2018-02-10T08:32:56.708Z,65.62
2018-02-10T08:34:03.008Z,64.57
2018-02-10T08:35:09.216Z,61.85
2018-02-10T08:36:15.356Z,63.22
2018-02-10T08:37:21.547Z,67.25
2018-02-10T08:38:27.759Z,58.63
2018-02-10T08:39:33.868Z,57.20
2018-02-10T08:40:40.102Z,65.15
2018-02-10T08:41:46.304Z,67.03
2018-02-10T08:42:52.660Z,61.83
2018-02-10T08:43:58.823Z,62.13
2018-02-10T08:45:04.259Z,62.17
2018-02-10T08:46:10.422Z,61.10
2018-02-10T08:47:16.612Z,62.85
2018-02-10T08:48:22.740Z,63.63
2018-02-10T08:49:28.937Z,59.55
2018-02-10T08:50:35.131Z,61.25
2018-02-10T08:51:41.235Z,61.37
2018-02-10T08:52:47.428Z,59.83
2018-02-10T08:53:53.656Z,55.83
2018-02-10T08:54:59.833Z,59.15
2018-02-10T08:56:06.018Z,59.05
2018-02-10T08:57:12.187Z,61.47
2018-02-10T08:58:18.355Z,58.45
2018-02-10T08:59:24.616Z,67.47
2018-02-10T09:00:30.840Z,54.25
2018-02-10T09:01:36.996Z,58.47
2018-02-10T09:02:43.120Z,57.10
2018-02-10T09:03:49.345Z,58.63
2018-02-10T09:04:55.527Z,56.88
2018-02-10T09:06:01.818Z,56.92
2018-02-10T09:07:07.976Z,59.20
2018-02-10T09:08:14.131Z,59.42
2018-02-10T09:09:20.292Z,54.05
2018-02-10T09:10:26.540Z,53.22
2018-02-10T09:11:32.753Z,54.40
2018-02-10T09:12:38.944Z,59.17
2018-02-10T09:13:45.096Z,59.45
2018-02-10T09:14:51.309Z,58.10
2018-02-10T09:15:57.540Z,56.97
2018-02-10T09:17:03.698Z,57.83
2018-02-10T09:18:09.931Z,59.50
2018-02-10T09:19:16.108Z,60.08
2018-02-10T09:20:22.347Z,54.70
2018-02-10T09:21:28.746Z,57.47
2018-02-10T09:22:35.023Z,59.15
2018-02-10T09:23:41.195Z,59.38
2018-02-10T09:24:47.396Z,55.50
2018-02-10T09:25:53.590Z,59.35
2018-02-10T09:26:59.772Z,57.70
2018-02-10T09:28:06.089Z,66.35
2018-02-10T09:29:12.311Z,61.83
2018-02-10T09:30:18.494Z,61.80
2018-02-10T09:31:24.711Z,56.65
2018-02-10T09:32:30.943Z,63.47
2018-02-10T09:33:37.145Z,59.30
2018-02-10T09:34:43.360Z,63.55
2018-02-10T09:35:49.599Z,63.28
2018-02-10T09:36:55.816Z,63.08
2018-02-10T09:38:01.903Z,61.80
2018-02-10T09:39:08.148Z,64.53
2018-02-10T09:40:14.318Z,54.70
2018-02-10T09:41:20.508Z,59.33
2018-02-10T09:42:26.850Z,50.28
2018-02-10T09:43:33.118Z,62.42
2018-02-10T09:44:39.293Z,56.25
2018-02-10T09:45:45.523Z,55.33
2018-02-10T09:46:57.901Z,58.03
2018-02-10T09:48:04.186Z,51.17
2018-02-10T09:49:10.424Z,53.53
2018-02-10T09:50:17.261Z,52.70
2018-02-10T09:51:23.947Z,56.88
2018-02-10T09:52:30.200Z,48.97
2018-02-10T09:53:42.115Z,55.47
2018-02-10T09:54:48.367Z,56.95
2018-02-10T09:55:54.596Z,53.05
2018-02-10T09:57:00.755Z,54.85
2018-02-10T09:58:06.949Z,55.03
2018-02-10T09:59:13.204Z,53.40
2018-02-10T10:00:19.504Z,51.92
2018-02-10T10:01:25.668Z,59.10
2018-02-10T10:02:31.860Z,57.33
2018-02-10T10:03:38.119Z,52.55
2018-02-10T10:04:44.628Z,51.60
2018-02-10T10:05:50.850Z,53.33
2018-02-10T10:06:57.019Z,52.97
2018-02-10T10:08:03.281Z,52.70
2018-02-10T10:09:09.192Z,56.03
2018-02-10T10:10:15.468Z,53.75
2018-02-10T10:11:21.661Z,55.12
2018-02-10T10:12:27.879Z,54.15
2018-02-10T10:13:34.110Z,54.38
2018-02-10T10:14:40.321Z,54.35
2018-02-10T10:15:46.570Z,55.03
2018-02-10T10:16:52.800Z,53.15
2018-02-10T10:17:58.687Z,56.42
2018-02-10T10:19:05.204Z,52.20
2018-02-10T10:20:11.426Z,50.95
2018-02-10T10:21:17.631Z,56.10
2018-02-10T10:22:23.583Z,46.13
2018-02-10T10:23:29.796Z,48.67
2018-02-10T10:24:36.061Z,51.22
2018-02-10T10:25:42.236Z,48.78
2018-02-10T10:26:48.490Z,55.85
2018-02-10T10:27:54.706Z,51.70
2018-02-10T10:29:00.930Z,47.25
2018-02-10T10:31:41.532Z,48.78
2018-02-10T10:32:47.711Z,47.45
2018-02-10T10:33:53.899Z,51.30
2018-02-10T10:35:00.369Z,53.92
2018-02-10T10:36:06.589Z,53.55
2018-02-10T10:37:12.780Z,52.15
2018-02-10T10:38:19.115Z,50.25
2018-02-10T10:39:25.273Z,49.00
2018-02-10T10:40:32.161Z,53.05
2018-02-10T10:41:38.523Z,46.58
2018-02-10T10:42:44.694Z,52.45
2018-02-10T10:43:50.937Z,50.55
2018-02-10T10:44:57.254Z,50.75
2018-02-10T10:46:03.505Z,50.75
2018-02-10T10:47:09.754Z,55.75
2018-02-10T10:48:15.957Z,50.38
2018-02-10T10:49:22.883Z,47.75
2018-02-10T10:50:29.092Z,51.35
2018-02-10T10:51:35.013Z,54.85
2018-02-10T10:52:41.206Z,54.45
2018-02-10T10:53:47.419Z,47.78
2018-02-10T10:54:53.636Z,52.97
2018-02-10T10:55:59.993Z,47.55
2018-02-10T10:57:06.200Z,53.80
2018-02-10T10:58:12.087Z,50.45
2018-02-10T10:59:18.669Z,46.20
2018-02-10T11:00:24.897Z,44.30
2018-02-10T11:01:31.727Z,43.70
2018-02-10T11:02:37.864Z,43.08
2018-02-10T11:03:44.414Z,46.08
2018-02-10T11:04:50.665Z,46.05
2018-02-10T11:05:57.743Z,41.70
2018-02-10T11:07:04.593Z,43.00
2018-02-10T11:08:10.796Z,39.65
2018-02-10T11:09:17.006Z,39.75
2018-02-10T11:10:25.266Z,42.17
2018-02-10T11:11:31.542Z,38.33
2018-02-10T11:12:38.231Z,39.95
2018-02-10T11:13:44.487Z,39.05
2018-02-10T11:14:50.824Z,43.28
2018-02-10T11:15:57.260Z,41.97
2018-02-10T11:17:03.617Z,40.05
2018-02-10T11:18:09.980Z,43.15
2018-02-10T11:19:16.227Z,37.17
2018-02-10T11:20:22.859Z,40.72
2018-02-10T11:21:29.140Z,36.78
2018-02-10T11:22:35.376Z,40.60
2018-02-10T11:23:42.395Z,38.38
2018-02-10T11:24:48.935Z,43.60
2018-02-10T11:26:07.429Z,41.00
2018-02-10T11:27:13.707Z,38.13
2018-02-10T11:28:19.933Z,40.38
2018-02-10T11:29:26.940Z,37.20
2018-02-10T11:30:33.237Z,38.15
2018-02-10T11:31:40.478Z,42.28
2018-02-10T11:32:47.270Z,42.42
2018-02-10T11:33:58.376Z,41.10
2018-02-10T11:35:04.641Z,39.65
2018-02-10T11:36:10.995Z,39.53
2018-02-10T11:37:17.966Z,38.72
2018-02-10T11:38:24.240Z,39.33
2018-02-10T11:39:30.575Z,34.80
2018-02-10T11:40:37.018Z,36.88
2018-02-10T11:41:43.284Z,37.15
2018-02-10T11:42:49.519Z,39.63
2018-02-10T11:43:55.545Z,35.05
2018-02-10T11:45:01.789Z,34.85
2018-02-10T11:46:08.047Z,38.05
2018-02-10T11:47:15.171Z,39.08
2018-02-10T11:48:21.423Z,42.30
2018-02-10T11:49:27.921Z,37.03
2018-02-10T11:50:33.879Z,39.88
2018-02-10T11:51:40.866Z,36.50
2018-02-10T11:52:47.241Z,38.28
2018-02-10T11:53:53.521Z,32.45
2018-02-10T11:55:00.068Z,32.10
2018-02-10T11:56:06.398Z,34.60
2018-02-10T11:57:13.579Z,39.50
2018-02-10T11:58:19.677Z,32.75
2018-02-10T11:59:26.199Z,36.22
2018-02-10T12:00:32.859Z,34.05
2018-02-10T12:01:39.405Z,36.67
2018-02-10T12:02:45.779Z,34.10
2018-02-10T12:03:51.986Z,31.20
2018-02-10T12:04:58.363Z,27.20
2018-02-10T12:06:04.679Z,29.98
2018-02-10T12:07:10.967Z,25.95
2018-02-10T12:08:23.335Z,23.60
2018-02-10T12:09:30.394Z,22.37
2018-02-10T12:10:36.670Z,26.15
2018-02-10T12:11:42.841Z,21.48
2018-02-10T12:12:49.322Z,19.48
2018-02-10T12:13:55.692Z,20.33
2018-02-10T12:15:01.962Z,20.98
2018-02-10T12:16:08.276Z,23.10
2018-02-10T12:17:16.987Z,19.52
2018-02-10T12:18:25.464Z,24.02
2018-02-10T12:19:32.108Z,23.45
2018-02-10T12:20:38.718Z,23.23
2018-02-10T12:21:45.349Z,26.65
2018-02-10T12:22:51.631Z,22.25
2018-02-10T12:23:58.015Z,24.00
2018-02-10T12:25:03.757Z,24.63
2018-02-10T12:26:10.097Z,24.00
2018-02-10T12:27:16.748Z,27.40
2018-02-10T12:28:22.956Z,23.83
2018-02-10T12:29:29.338Z,27.50
2018-02-10T12:30:35.621Z,26.48
2018-02-10T12:31:41.912Z,26.10
2018-02-10T12:32:48.151Z,23.67
2018-02-10T12:33:55.141Z,23.30
2018-02-10T12:35:01.730Z,23.42
2018-02-10T12:36:07.851Z,21.48
2018-02-10T12:37:14.719Z,23.25
2018-02-10T12:38:21.099Z,19.77
2018-02-10T12:39:28.181Z,23.02
2018-02-10T12:40:34.612Z,20.37
2018-02-10T12:41:40.544Z,20.20
2018-02-10T12:42:46.814Z,22.55
2018-02-10T12:43:53.159Z,19.73
2018-02-10T12:44:59.448Z,19.62
2018-02-10T12:46:05.878Z,22.05
2018-02-10T12:47:12.267Z,21.58
2018-02-10T12:48:24.574Z,22.23
2018-02-10T12:49:30.658Z,17.52
2018-02-10T12:50:36.882Z,17.67
2018-02-10T12:51:43.147Z,20.02
2018-02-10T12:52:49.572Z,19.05
2018-02-10T12:53:57.189Z,18.52
2018-02-10T12:55:03.505Z,20.95
2018-02-10T12:56:09.938Z,21.98
2018-02-10T12:57:16.330Z,18.92
2018-02-10T12:58:22.649Z,21.17
2018-02-10T12:59:28.934Z,20.65
2018-02-10T13:00:35.233Z,23.50
2018-02-10T13:01:42.414Z,21.77
2018-02-10T13:02:48.736Z,22.30
2018-02-10T13:03:55.729Z,22.65
2018-02-10T13:05:02.201Z,21.37
2018-02-10T13:06:08.488Z,23.30
2018-02-10T13:07:14.832Z,25.12
2018-02-10T13:08:21.301Z,24.67
2018-02-10T13:09:27.763Z,24.50
2018-02-10T13:10:34.068Z,22.37
2018-02-10T13:11:40.735Z,24.08
2018-02-10T13:12:47.057Z,27.15
2018-02-10T13:13:55.057Z,24.45
2018-02-10T13:15:01.528Z,26.17
2018-02-10T13:16:07.869Z,29.50
2018-02-10T13:17:17.971Z,24.92
2018-02-10T13:18:24.421Z,21.92
2018-02-10T13:19:30.811Z,29.17
2018-02-10T13:20:37.493Z,23.83
2018-02-10T13:21:43.878Z,26.37
2018-02-10T13:22:50.211Z,25.80
2018-02-10T13:23:56.670Z,24.45
2018-02-10T13:25:03.238Z,26.35
2018-02-10T13:26:10.228Z,24.98
2018-02-10T13:27:21.372Z,29.40
2018-02-10T13:28:27.542Z,27.33
2018-02-10T13:29:34.277Z,23.27
2018-02-10T13:30:41.434Z,24.60
2018-02-10T13:31:48.641Z,29.80
2018-02-10T13:32:54.696Z,32.40
2018-02-10T13:34:01.019Z,30.37
2018-02-10T13:35:07.251Z,27.80
2018-02-10T13:36:13.479Z,28.62
2018-02-10T13:37:19.677Z,25.15
2018-02-10T13:38:26.097Z,25.20
2018-02-10T13:39:32.485Z,28.12
2018-02-10T13:40:39.732Z,27.80
2018-02-10T13:41:45.999Z,25.70
2018-02-10T13:42:52.578Z,27.02
2018-02-10T13:43:58.871Z,23.38
2018-02-10T13:45:05.634Z,28.27
2018-02-10T13:46:11.552Z,22.40
2018-02-10T13:47:17.900Z,28.02
2018-02-10T13:48:35.114Z,27.08
2018-02-10T13:49:41.524Z,28.05
2018-02-10T13:50:47.938Z,27.80
2018-02-10T13:51:55.111Z,26.42
2018-02-10T13:53:01.517Z,26.35
2018-02-10T13:54:07.827Z,28.98
2018-02-10T13:55:14.195Z,26.17
2018-02-10T13:56:20.895Z,29.05
2018-02-10T13:57:27.313Z,29.25
2018-02-10T13:58:34.295Z,31.52
2018-02-10T13:59:40.592Z,27.15
2018-02-10T14:00:46.968Z,32.00
2018-02-10T14:01:54.489Z,29.95
2018-02-10T14:03:01.601Z,24.15
2018-02-10T14:04:07.840Z,28.25
2018-02-10T14:05:14.110Z,30.27
2018-02-10T14:06:20.366Z,29.35
2018-02-10T14:07:26.703Z,25.30
2018-02-10T14:08:33.248Z,27.95
2018-02-10T14:09:39.335Z,26.17
2018-02-10T14:10:46.529Z,26.50
2018-02-10T14:11:53.793Z,29.23
2018-02-10T14:13:01.001Z,30.83
2018-02-10T14:14:07.972Z,30.60
2018-02-10T14:15:14.765Z,30.88
2018-02-10T14:16:22.289Z,25.10
2018-02-10T14:17:30.974Z,28.45
2018-02-10T14:18:39.035Z,27.00
2018-02-10T14:19:45.783Z,27.27
2018-02-10T14:20:53.525Z,32.63
2018-02-10T14:22:00.937Z,27.23
2018-02-10T14:23:07.737Z,28.52
2018-02-10T14:24:20.072Z,28.00
2018-02-10T14:25:26.869Z,29.20
2018-02-10T14:26:34.140Z,30.33
2018-02-10T14:27:41.636Z,27.00
2018-02-10T14:28:48.735Z,27.50
2018-02-10T14:29:55.714Z,25.52